sensor_id;sensor_type;location;lat;lon;timestamp;P1;durP1;ratioP1;P2;durP2;ratioP2
4377;SDS011;2203;53.686;9.994;2022-08-21T00:02:19;13.97;;;4.07;;
4377;SDS011;2203;53.686;9.994;2022-08-21T00:04:47;9.03;;;3.70;;
4377;SDS011;2203;53.686;9.994;2022-08-21T00:07:13;11.57;;;4.20;;
4377;SDS011;2203;53.686;9.994;2022-08-21T00:09:38;8.70;;;3.90;;
4377;SDS011;2203;53.686;9.994;2022-08-21T00:12:04;8.13;;;3.80;;
4377;SDS011;2203;53.686;9.994;2022-08-21T00:14:31;8.80;;;4.50;;
4377;SDS011;2203;53.686;9.994;2022-08-21T00:16:57;12.27;;;3.80;;
4377;SDS011;2203;53.686;9.994;2022-08-21T00:19:23;9.70;;;4.13;;
4377;SDS011;2203;53.686;9.994;2022-08-21T00:21:50;8.73;;;3.23;;
4377;SDS011;2203;53.686;9.994;2022-08-21T00:24:16;9.90;;;4.77;;
4377;SDS011;2203;53.686;9.994;2022-08-21T00:26:43;6.00;;;3.50;;
4377;SDS011;2203;53.686;9.994;2022-08-21T00:29:08;11.07;;;4.50;;
4377;SDS011;2203;53.686;9.994;2022-08-21T00:31:34;11.10;;;4.17;;
4377;SDS011;2203;53.686;9.994;2022-08-21T00:34:00;12.87;;;5.60;;
4377;SDS011;2203;53.686;9.994;2022-08-21T00:36:25;9.93;;;5.40;;
4377;SDS011;2203;53.686;9.994;2022-08-21T00:38:51;18.80;;;6.47;;
4377;SDS011;2203;53.686;9.994;2022-08-21T00:41:16;10.03;;;5.83;;
4377;SDS011;2203;53.686;9.994;2022-08-21T00:43:42;19.00;;;5.60;;
4377;SDS011;2203;53.686;9.994;2022-08-21T00:46:07;18.03;;;6.03;;
4377;SDS011;2203;53.686;9.994;2022-08-21T00:48:32;15.00;;;5.23;;
4377;SDS011;2203;53.686;9.994;2022-08-21T00:53:30;17.50;;;4.80;;
4377;SDS011;2203;53.686;9.994;2022-08-21T00:55:58;14.63;;;4.50;;
4377;SDS011;2203;53.686;9.994;2022-08-21T00:58:26;8.17;;;4.77;;
4377;SDS011;2203;53.686;9.994;2022-08-21T01:00:52;10.97;;;5.20;;
4377;SDS011;2203;53.686;9.994;2022-08-21T01:03:22;11.37;;;4.87;;
4377;SDS011;2203;53.686;9.994;2022-08-21T01:05:49;10.00;;;5.17;;
4377;SDS011;2203;53.686;9.994;2022-08-21T01:08:16;12.60;;;5.10;;
4377;SDS011;2203;53.686;9.994;2022-08-21T01:10:42;15.83;;;5.37;;
4377;SDS011;2203;53.686;9.994;2022-08-21T01:13:09;15.60;;;5.10;;
4377;SDS011;2203;53.686;9.994;2022-08-21T01:15:38;10.70;;;5.47;;
4377;SDS011;2203;53.686;9.994;2022-08-21T01:18:07;11.20;;;5.20;;
4377;SDS011;2203;53.686;9.994;2022-08-21T01:20:34;15.07;;;5.40;;
4377;SDS011;2203;53.686;9.994;2022-08-21T01:23:02;15.70;;;5.40;;
4377;SDS011;2203;53.686;9.994;2022-08-21T01:25:28;13.23;;;5.37;;
4377;SDS011;2203;53.686;9.994;2022-08-21T01:27:53;15.30;;;5.37;;
4377;SDS011;2203;53.686;9.994;2022-08-21T01:30:20;13.23;;;5.70;;
4377;SDS011;2203;53.686;9.994;2022-08-21T01:32:48;14.10;;;5.87;;
4377;SDS011;2203;53.686;9.994;2022-08-21T01:35:15;12.57;;;5.30;;
4377;SDS011;2203;53.686;9.994;2022-08-21T01:37:41;14.40;;;5.93;;
4377;SDS011;2203;53.686;9.994;2022-08-21T01:40:07;12.60;;;4.60;;
4377;SDS011;2203;53.686;9.994;2022-08-21T01:42:33;12.70;;;5.30;;
4377;SDS011;2203;53.686;9.994;2022-08-21T01:44:59;15.07;;;5.27;;
4377;SDS011;2203;53.686;9.994;2022-08-21T01:47:24;9.43;;;4.87;;
4377;SDS011;2203;53.686;9.994;2022-08-21T01:49:50;10.67;;;4.50;;
4377;SDS011;2203;53.686;9.994;2022-08-21T01:52:16;9.90;;;4.83;;
4377;SDS011;2203;53.686;9.994;2022-08-21T01:54:42;7.13;;;4.57;;
4377;SDS011;2203;53.686;9.994;2022-08-21T01:57:07;18.50;;;5.80;;
4377;SDS011;2203;53.686;9.994;2022-08-21T01:59:33;11.07;;;4.43;;
4377;SDS011;2203;53.686;9.994;2022-08-21T02:01:59;16.50;;;5.20;;
4377;SDS011;2203;53.686;9.994;2022-08-21T02:04:24;11.00;;;5.00;;
4377;SDS011;2203;53.686;9.994;2022-08-21T02:06:50;11.00;;;4.27;;
4377;SDS011;2203;53.686;9.994;2022-08-21T02:09:15;9.47;;;4.07;;
4377;SDS011;2203;53.686;9.994;2022-08-21T02:11:42;10.50;;;4.50;;
4377;SDS011;2203;53.686;9.994;2022-08-21T02:14:08;12.70;;;4.57;;
4377;SDS011;2203;53.686;9.994;2022-08-21T02:16:39;11.57;;;4.20;;
4377;SDS011;2203;53.686;9.994;2022-08-21T02:19:05;10.93;;;4.33;;
4377;SDS011;2203;53.686;9.994;2022-08-21T02:21:31;6.73;;;4.20;;
4377;SDS011;2203;53.686;9.994;2022-08-21T02:23:57;15.73;;;4.57;;
4377;SDS011;2203;53.686;9.994;2022-08-21T02:26:22;7.77;;;3.77;;
4377;SDS011;2203;53.686;9.994;2022-08-21T02:28:48;13.37;;;5.20;;
4377;SDS011;2203;53.686;9.994;2022-08-21T02:31:13;8.63;;;4.47;;
4377;SDS011;2203;53.686;9.994;2022-08-21T02:33:39;14.17;;;5.10;;
4377;SDS011;2203;53.686;9.994;2022-08-21T02:36:05;13.73;;;5.07;;
4377;SDS011;2203;53.686;9.994;2022-08-21T02:38:32;11.43;;;4.53;;
4377;SDS011;2203;53.686;9.994;2022-08-21T02:40:59;12.47;;;4.57;;
4377;SDS011;2203;53.686;9.994;2022-08-21T02:43:25;13.13;;;3.80;;
4377;SDS011;2203;53.686;9.994;2022-08-21T02:45:52;11.50;;;3.87;;
4377;SDS011;2203;53.686;9.994;2022-08-21T02:48:21;8.30;;;4.47;;
4377;SDS011;2203;53.686;9.994;2022-08-21T02:50:53;8.00;;;4.37;;
4377;SDS011;2203;53.686;9.994;2022-08-21T02:53:20;7.30;;;4.10;;
4377;SDS011;2203;53.686;9.994;2022-08-21T02:55:46;12.40;;;4.10;;
4377;SDS011;2203;53.686;9.994;2022-08-21T02:58:13;8.23;;;4.47;;
4377;SDS011;2203;53.686;9.994;2022-08-21T03:00:41;10.17;;;4.03;;
4377;SDS011;2203;53.686;9.994;2022-08-21T03:03:06;7.27;;;4.03;;
4377;SDS011;2203;53.686;9.994;2022-08-21T03:05:33;6.80;;;3.77;;
4377;SDS011;2203;53.686;9.994;2022-08-21T03:08:00;8.93;;;4.43;;
4377;SDS011;2203;53.686;9.994;2022-08-21T03:10:27;9.40;;;4.70;;
4377;SDS011;2203;53.686;9.994;2022-08-21T03:12:52;12.30;;;4.50;;
4377;SDS011;2203;53.686;9.994;2022-08-21T03:15:20;12.40;;;4.40;;
4377;SDS011;2203;53.686;9.994;2022-08-21T03:17:46;8.13;;;3.77;;
4377;SDS011;2203;53.686;9.994;2022-08-21T03:20:13;12.57;;;4.30;;
4377;SDS011;2203;53.686;9.994;2022-08-21T03:22:40;9.40;;;4.37;;
4377;SDS011;2203;53.686;9.994;2022-08-21T03:25:06;7.17;;;4.57;;
4377;SDS011;2203;53.686;9.994;2022-08-21T03:27:33;10.30;;;4.33;;
4377;SDS011;2203;53.686;9.994;2022-08-21T03:29:59;5.87;;;3.60;;
4377;SDS011;2203;53.686;9.994;2022-08-21T03:32:25;8.73;;;3.87;;
4377;SDS011;2203;53.686;9.994;2022-08-21T03:34:50;9.90;;;4.00;;
4377;SDS011;2203;53.686;9.994;2022-08-21T03:37:16;7.20;;;3.93;;
4377;SDS011;2203;53.686;9.994;2022-08-21T03:39:42;11.70;;;4.20;;
4377;SDS011;2203;53.686;9.994;2022-08-21T03:42:08;6.47;;;3.63;;
4377;SDS011;2203;53.686;9.994;2022-08-21T03:44:34;6.43;;;3.40;;
4377;SDS011;2203;53.686;9.994;2022-08-21T03:47:00;15.63;;;3.90;;
4377;SDS011;2203;53.686;9.994;2022-08-21T03:49:26;9.10;;;3.60;;
4377;SDS011;2203;53.686;9.994;2022-08-21T03:51:52;9.67;;;4.20;;
4377;SDS011;2203;53.686;9.994;2022-08-21T03:54:18;11.13;;;3.47;;
4377;SDS011;2203;53.686;9.994;2022-08-21T03:56:43;18.73;;;3.10;;
4377;SDS011;2203;53.686;9.994;2022-08-21T03:59:09;12.70;;;4.13;;
4377;SDS011;2203;53.686;9.994;2022-08-21T04:01:35;8.30;;;3.63;;
4377;SDS011;2203;53.686;9.994;2022-08-21T04:04:01;11.70;;;3.60;;
4377;SDS011;2203;53.686;9.994;2022-08-21T04:06:27;8.33;;;3.30;;
4377;SDS011;2203;53.686;9.994;2022-08-21T04:08:53;6.10;;;3.63;;
4377;SDS011;2203;53.686;9.994;2022-08-21T04:11:19;5.80;;;3.33;;
4377;SDS011;2203;53.686;9.994;2022-08-21T04:13:44;6.60;;;3.17;;
4377;SDS011;2203;53.686;9.994;2022-08-21T04:16:10;4.90;;;2.67;;
4377;SDS011;2203;53.686;9.994;2022-08-21T04:18:36;7.53;;;3.47;;
4377;SDS011;2203;53.686;9.994;2022-08-21T04:21:02;6.50;;;3.03;;
4377;SDS011;2203;53.686;9.994;2022-08-21T04:23:28;17.20;;;4.50;;
4377;SDS011;2203;53.686;9.994;2022-08-21T04:25:54;12.10;;;4.07;;
4377;SDS011;2203;53.686;9.994;2022-08-21T04:28:23;7.43;;;3.83;;
4377;SDS011;2203;53.686;9.994;2022-08-21T04:30:52;6.90;;;3.60;;
4377;SDS011;2203;53.686;9.994;2022-08-21T04:33:18;8.10;;;3.53;;
4377;SDS011;2203;53.686;9.994;2022-08-21T04:35:44;9.33;;;3.77;;
4377;SDS011;2203;53.686;9.994;2022-08-21T04:38:09;7.83;;;3.70;;
4377;SDS011;2203;53.686;9.994;2022-08-21T04:40:35;8.00;;;3.30;;
4377;SDS011;2203;53.686;9.994;2022-08-21T04:43:02;8.70;;;3.27;;
4377;SDS011;2203;53.686;9.994;2022-08-21T04:45:31;9.50;;;4.30;;
4377;SDS011;2203;53.686;9.994;2022-08-21T04:47:59;6.80;;;3.63;;
4377;SDS011;2203;53.686;9.994;2022-08-21T04:50:31;10.53;;;3.33;;
4377;SDS011;2203;53.686;9.994;2022-08-21T04:53:05;8.60;;;3.50;;
4377;SDS011;2203;53.686;9.994;2022-08-21T04:55:37;16.53;;;3.10;;
4377;SDS011;2203;53.686;9.994;2022-08-21T04:58:04;9.93;;;3.80;;
4377;SDS011;2203;53.686;9.994;2022-08-21T05:00:31;9.07;;;3.13;;
4377;SDS011;2203;53.686;9.994;2022-08-21T05:02:56;12.13;;;4.10;;
4377;SDS011;2203;53.686;9.994;2022-08-21T05:05:24;12.17;;;4.00;;
4377;SDS011;2203;53.686;9.994;2022-08-21T05:07:49;7.57;;;3.80;;
4377;SDS011;2203;53.686;9.994;2022-08-21T05:10:15;9.57;;;3.80;;
4377;SDS011;2203;53.686;9.994;2022-08-21T05:12:41;9.70;;;4.03;;
4377;SDS011;2203;53.686;9.994;2022-08-21T05:15:08;7.23;;;3.53;;
4377;SDS011;2203;53.686;9.994;2022-08-21T05:17:34;5.30;;;3.57;;
4377;SDS011;2203;53.686;9.994;2022-08-21T05:20:00;12.33;;;3.43;;
4377;SDS011;2203;53.686;9.994;2022-08-21T05:22:27;6.97;;;3.10;;
4377;SDS011;2203;53.686;9.994;2022-08-21T05:24:53;9.47;;;3.50;;
4377;SDS011;2203;53.686;9.994;2022-08-21T05:27:18;7.20;;;3.33;;
4377;SDS011;2203;53.686;9.994;2022-08-21T05:29:44;5.50;;;3.00;;
4377;SDS011;2203;53.686;9.994;2022-08-21T05:32:09;7.50;;;3.93;;
4377;SDS011;2203;53.686;9.994;2022-08-21T05:34:36;12.97;;;4.60;;
4377;SDS011;2203;53.686;9.994;2022-08-21T05:37:01;17.20;;;3.90;;
4377;SDS011;2203;53.686;9.994;2022-08-21T05:39:27;6.37;;;3.10;;
4377;SDS011;2203;53.686;9.994;2022-08-21T05:41:53;7.30;;;3.87;;
4377;SDS011;2203;53.686;9.994;2022-08-21T05:44:18;11.30;;;3.33;;
4377;SDS011;2203;53.686;9.994;2022-08-21T05:46:43;11.00;;;3.90;;
4377;SDS011;2203;53.686;9.994;2022-08-21T05:49:10;11.70;;;4.13;;
4377;SDS011;2203;53.686;9.994;2022-08-21T05:51:36;4.37;;;3.30;;
4377;SDS011;2203;53.686;9.994;2022-08-21T05:54:01;8.13;;;3.73;;
4377;SDS011;2203;53.686;9.994;2022-08-21T05:56:27;8.27;;;3.63;;
4377;SDS011;2203;53.686;9.994;2022-08-21T05:58:53;12.40;;;4.43;;
4377;SDS011;2203;53.686;9.994;2022-08-21T06:01:18;18.73;;;4.47;;
4377;SDS011;2203;53.686;9.994;2022-08-21T06:03:43;10.33;;;4.13;;
4377;SDS011;2203;53.686;9.994;2022-08-21T06:06:09;9.33;;;4.53;;
4377;SDS011;2203;53.686;9.994;2022-08-21T06:08:35;13.63;;;5.30;;
4377;SDS011;2203;53.686;9.994;2022-08-21T06:11:00;15.20;;;5.60;;
4377;SDS011;2203;53.686;9.994;2022-08-21T06:13:26;12.23;;;4.70;;
4377;SDS011;2203;53.686;9.994;2022-08-21T06:16:03;12.40;;;4.30;;
4377;SDS011;2203;53.686;9.994;2022-08-21T06:18:34;12.53;;;4.63;;
4377;SDS011;2203;53.686;9.994;2022-08-21T06:21:00;6.37;;;4.40;;
4377;SDS011;2203;53.686;9.994;2022-08-21T06:23:25;16.77;;;5.07;;
4377;SDS011;2203;53.686;9.994;2022-08-21T06:25:51;8.67;;;4.03;;
4377;SDS011;2203;53.686;9.994;2022-08-21T06:28:18;12.30;;;4.40;;
4377;SDS011;2203;53.686;9.994;2022-08-21T06:30:43;14.47;;;5.00;;
4377;SDS011;2203;53.686;9.994;2022-08-21T06:33:08;13.37;;;4.70;;
4377;SDS011;2203;53.686;9.994;2022-08-21T06:35:34;9.40;;;4.47;;
4377;SDS011;2203;53.686;9.994;2022-08-21T06:38:00;14.30;;;5.10;;
4377;SDS011;2203;53.686;9.994;2022-08-21T06:40:26;22.63;;;5.80;;
4377;SDS011;2203;53.686;9.994;2022-08-21T06:42:52;13.00;;;5.90;;
4377;SDS011;2203;53.686;9.994;2022-08-21T06:45:18;17.97;;;6.60;;
4377;SDS011;2203;53.686;9.994;2022-08-21T06:47:43;13.40;;;6.97;;
4377;SDS011;2203;53.686;9.994;2022-08-21T06:50:09;13.00;;;6.13;;
4377;SDS011;2203;53.686;9.994;2022-08-21T06:52:35;12.57;;;5.30;;
4377;SDS011;2203;53.686;9.994;2022-08-21T06:55:01;19.80;;;5.30;;
4377;SDS011;2203;53.686;9.994;2022-08-21T06:57:26;10.70;;;4.60;;
4377;SDS011;2203;53.686;9.994;2022-08-21T06:59:52;9.00;;;3.93;;
4377;SDS011;2203;53.686;9.994;2022-08-21T07:02:17;15.73;;;4.67;;
4377;SDS011;2203;53.686;9.994;2022-08-21T07:04:43;14.20;;;4.40;;
4377;SDS011;2203;53.686;9.994;2022-08-21T07:07:09;16.13;;;4.20;;
4377;SDS011;2203;53.686;9.994;2022-08-21T07:09:34;12.63;;;4.53;;
4377;SDS011;2203;53.686;9.994;2022-08-21T07:12:00;11.67;;;4.50;;
4377;SDS011;2203;53.686;9.994;2022-08-21T07:14:27;13.80;;;4.60;;
4377;SDS011;2203;53.686;9.994;2022-08-21T07:16:52;14.63;;;4.37;;
4377;SDS011;2203;53.686;9.994;2022-08-21T07:19:18;9.37;;;3.47;;
4377;SDS011;2203;53.686;9.994;2022-08-21T07:21:43;10.40;;;4.20;;
4377;SDS011;2203;53.686;9.994;2022-08-21T07:24:09;12.40;;;3.50;;
4377;SDS011;2203;53.686;9.994;2022-08-21T07:26:34;8.77;;;3.37;;
4377;SDS011;2203;53.686;9.994;2022-08-21T07:28:59;7.50;;;3.23;;
4377;SDS011;2203;53.686;9.994;2022-08-21T07:31:25;11.53;;;3.10;;
4377;SDS011;2203;53.686;9.994;2022-08-21T07:33:51;9.60;;;2.97;;
4377;SDS011;2203;53.686;9.994;2022-08-21T07:36:16;6.43;;;2.97;;
4377;SDS011;2203;53.686;9.994;2022-08-21T07:38:42;7.73;;;2.77;;
4377;SDS011;2203;53.686;9.994;2022-08-21T07:41:24;8.87;;;2.80;;
4377;SDS011;2203;53.686;9.994;2022-08-21T07:43:51;7.37;;;2.70;;
4377;SDS011;2203;53.686;9.994;2022-08-21T07:46:17;10.33;;;3.30;;
4377;SDS011;2203;53.686;9.994;2022-08-21T07:48:42;6.97;;;2.23;;
4377;SDS011;2203;53.686;9.994;2022-08-21T07:51:09;5.50;;;2.30;;
4377;SDS011;2203;53.686;9.994;2022-08-21T07:53:36;6.07;;;2.60;;
4377;SDS011;2203;53.686;9.994;2022-08-21T07:56:03;7.53;;;2.50;;
4377;SDS011;2203;53.686;9.994;2022-08-21T07:58:29;7.23;;;2.53;;
4377;SDS011;2203;53.686;9.994;2022-08-21T08:00:55;9.97;;;2.20;;
4377;SDS011;2203;53.686;9.994;2022-08-21T08:03:21;14.57;;;2.50;;
4377;SDS011;2203;53.686;9.994;2022-08-21T08:05:46;7.10;;;2.17;;
4377;SDS011;2203;53.686;9.994;2022-08-21T08:08:12;6.63;;;2.43;;
4377;SDS011;2203;53.686;9.994;2022-08-21T08:10:37;9.33;;;1.83;;
4377;SDS011;2203;53.686;9.994;2022-08-21T08:13:03;12.80;;;2.20;;
4377;SDS011;2203;53.686;9.994;2022-08-21T08:15:29;5.43;;;2.30;;
4377;SDS011;2203;53.686;9.994;2022-08-21T08:17:55;6.83;;;2.00;;
4377;SDS011;2203;53.686;9.994;2022-08-21T08:20:21;6.47;;;1.80;;
4377;SDS011;2203;53.686;9.994;2022-08-21T08:22:48;6.10;;;2.00;;
4377;SDS011;2203;53.686;9.994;2022-08-21T08:25:14;16.17;;;2.40;;
4377;SDS011;2203;53.686;9.994;2022-08-21T08:27:40;10.60;;;1.63;;
4377;SDS011;2203;53.686;9.994;2022-08-21T08:30:07;7.47;;;2.20;;
4377;SDS011;2203;53.686;9.994;2022-08-21T08:32:34;15.13;;;3.03;;
4377;SDS011;2203;53.686;9.994;2022-08-21T08:34:59;8.57;;;2.03;;
4377;SDS011;2203;53.686;9.994;2022-08-21T08:37:25;9.10;;;2.43;;
4377;SDS011;2203;53.686;9.994;2022-08-21T08:39:51;11.30;;;3.10;;
4377;SDS011;2203;53.686;9.994;2022-08-21T08:44:45;8.90;;;2.27;;
4377;SDS011;2203;53.686;9.994;2022-08-21T08:47:11;18.20;;;2.50;;
4377;SDS011;2203;53.686;9.994;2022-08-21T08:49:48;9.47;;;2.30;;
4377;SDS011;2203;53.686;9.994;2022-08-21T08:52:32;14.60;;;2.90;;
4377;SDS011;2203;53.686;9.994;2022-08-21T08:55:07;4.70;;;1.50;;
4377;SDS011;2203;53.686;9.994;2022-08-21T08:57:33;16.80;;;2.60;;
4377;SDS011;2203;53.686;9.994;2022-08-21T09:00:00;11.23;;;2.60;;
4377;SDS011;2203;53.686;9.994;2022-08-21T09:02:30;8.40;;;1.83;;
4377;SDS011;2203;53.686;9.994;2022-08-21T09:04:55;10.73;;;2.37;;
4377;SDS011;2203;53.686;9.994;2022-08-21T09:07:43;9.23;;;2.10;;
4377;SDS011;2203;53.686;9.994;2022-08-21T09:10:22;9.70;;;2.10;;
4377;SDS011;2203;53.686;9.994;2022-08-21T09:13:18;14.17;;;2.60;;
4377;SDS011;2203;53.686;9.994;2022-08-21T09:15:57;8.93;;;2.40;;
4377;SDS011;2203;53.686;9.994;2022-08-21T09:21:38;15.30;;;2.60;;
4377;SDS011;2203;53.686;9.994;2022-08-21T09:29:33;10.43;;;2.53;;
4377;SDS011;2203;53.686;9.994;2022-08-21T09:32:02;16.50;;;2.53;;
4377;SDS011;2203;53.686;9.994;2022-08-21T09:34:30;10.47;;;2.20;;
4377;SDS011;2203;53.686;9.994;2022-08-21T09:36:56;14.07;;;2.27;;
4377;SDS011;2203;53.686;9.994;2022-08-21T09:39:29;7.43;;;2.37;;
4377;SDS011;2203;53.686;9.994;2022-08-21T09:44:25;13.87;;;2.70;;
4377;SDS011;2203;53.686;9.994;2022-08-21T09:46:55;11.47;;;2.40;;
4377;SDS011;2203;53.686;9.994;2022-08-21T09:49:30;9.17;;;2.20;;
4377;SDS011;2203;53.686;9.994;2022-08-21T09:51:56;14.47;;;2.93;;
4377;SDS011;2203;53.686;9.994;2022-08-21T09:54:26;9.87;;;2.10;;
4377;SDS011;2203;53.686;9.994;2022-08-21T09:59:39;11.00;;;3.43;;
4377;SDS011;2203;53.686;9.994;2022-08-21T10:04:55;6.07;;;2.03;;
4377;SDS011;2203;53.686;9.994;2022-08-21T10:07:30;8.63;;;2.20;;
4377;SDS011;2203;53.686;9.994;2022-08-21T10:15:24;8.90;;;2.33;;
4377;SDS011;2203;53.686;9.994;2022-08-21T10:21:02;18.73;;;2.90;;
4377;SDS011;2203;53.686;9.994;2022-08-21T10:23:48;12.50;;;2.30;;
4377;SDS011;2203;53.686;9.994;2022-08-21T10:43:10;11.73;;;2.50;;
4377;SDS011;2203;53.686;9.994;2022-08-21T10:48:35;6.43;;;2.13;;
4377;SDS011;2203;53.686;9.994;2022-08-21T10:51:07;16.93;;;2.27;;
4377;SDS011;2203;53.686;9.994;2022-08-21T10:56:31;5.33;;;2.10;;
4377;SDS011;2203;53.686;9.994;2022-08-21T10:59:02;15.30;;;2.20;;
4377;SDS011;2203;53.686;9.994;2022-08-21T11:04:37;8.50;;;2.27;;
4377;SDS011;2203;53.686;9.994;2022-08-21T11:07:06;8.00;;;2.30;;
4377;SDS011;2203;53.686;9.994;2022-08-21T11:09:45;10.10;;;2.20;;
4377;SDS011;2203;53.686;9.994;2022-08-21T11:12:17;6.27;;;1.83;;
4377;SDS011;2203;53.686;9.994;2022-08-21T11:14:55;13.00;;;3.13;;
4377;SDS011;2203;53.686;9.994;2022-08-21T11:17:24;3.73;;;1.80;;
4377;SDS011;2203;53.686;9.994;2022-08-21T11:20:03;3.87;;;1.77;;
4377;SDS011;2203;53.686;9.994;2022-08-21T11:25:07;6.03;;;2.40;;
4377;SDS011;2203;53.686;9.994;2022-08-21T11:27:48;5.20;;;2.10;;
4377;SDS011;2203;53.686;9.994;2022-08-21T11:30:46;6.20;;;1.70;;
4377;SDS011;2203;53.686;9.994;2022-08-21T11:39:02;5.50;;;1.80;;
4377;SDS011;2203;53.686;9.994;2022-08-21T11:41:52;10.67;;;2.50;;
4377;SDS011;2203;53.686;9.994;2022-08-21T11:44:43;9.50;;;2.10;;
4377;SDS011;2203;53.686;9.994;2022-08-21T11:47:25;5.97;;;2.00;;
4377;SDS011;2203;53.686;9.994;2022-08-21T11:50:24;6.30;;;1.90;;
4377;SDS011;2203;53.686;9.994;2022-08-21T11:53:06;3.97;;;2.13;;
4377;SDS011;2203;53.686;9.994;2022-08-21T11:58:14;4.27;;;1.50;;
4377;SDS011;2203;53.686;9.994;2022-08-21T12:00:54;4.73;;;1.67;;
4377;SDS011;2203;53.686;9.994;2022-08-21T12:05:57;7.80;;;2.00;;
4377;SDS011;2203;53.686;9.994;2022-08-21T12:08:31;5.83;;;1.83;;
4377;SDS011;2203;53.686;9.994;2022-08-21T12:11:45;6.87;;;2.03;;
4377;SDS011;2203;53.686;9.994;2022-08-21T12:13:55;6.90;;;2.03;;
4377;SDS011;2203;53.686;9.994;2022-08-21T12:16:31;7.17;;;2.10;;
4377;SDS011;2203;53.686;9.994;2022-08-21T12:19:10;5.63;;;2.13;;
4377;SDS011;2203;53.686;9.994;2022-08-21T12:24:33;12.63;;;1.77;;
4377;SDS011;2203;53.686;9.994;2022-08-21T12:27:41;4.40;;;1.93;;
4377;SDS011;2203;53.686;9.994;2022-08-21T12:29:58;13.67;;;1.50;;
4377;SDS011;2203;53.686;9.994;2022-08-21T12:35:07;5.57;;;1.70;;
4377;SDS011;2203;53.686;9.994;2022-08-21T12:37:41;6.27;;;1.77;;
4377;SDS011;2203;53.686;9.994;2022-08-21T12:40:43;3.00;;;1.30;;
4377;SDS011;2203;53.686;9.994;2022-08-21T12:43:37;5.47;;;1.53;;
4377;SDS011;2203;53.686;9.994;2022-08-21T12:46:04;4.50;;;1.50;;
4377;SDS011;2203;53.686;9.994;2022-08-21T12:48:41;7.07;;;1.90;;
4377;SDS011;2203;53.686;9.994;2022-08-21T12:51:14;5.43;;;1.83;;
4377;SDS011;2203;53.686;9.994;2022-08-21T12:53:48;6.83;;;1.70;;
4377;SDS011;2203;53.686;9.994;2022-08-21T12:56:16;4.30;;;1.40;;
4377;SDS011;2203;53.686;9.994;2022-08-21T12:58:47;6.10;;;2.13;;
4377;SDS011;2203;53.686;9.994;2022-08-21T13:01:26;6.37;;;1.40;;
4377;SDS011;2203;53.686;9.994;2022-08-21T13:03:55;2.83;;;1.30;;
4377;SDS011;2203;53.686;9.994;2022-08-21T13:06:23;6.40;;;2.77;;
4377;SDS011;2203;53.686;9.994;2022-08-21T13:08:52;2.10;;;1.60;;
4377;SDS011;2203;53.686;9.994;2022-08-21T13:11:22;3.13;;;1.37;;
4377;SDS011;2203;53.686;9.994;2022-08-21T13:13:49;4.63;;;1.57;;
4377;SDS011;2203;53.686;9.994;2022-08-21T13:16:24;12.50;;;2.27;;
4377;SDS011;2203;53.686;9.994;2022-08-21T13:18:55;5.43;;;1.33;;
4377;SDS011;2203;53.686;9.994;2022-08-21T13:21:27;2.07;;;1.20;;
4377;SDS011;2203;53.686;9.994;2022-08-21T13:24:15;9.47;;;1.47;;
4377;SDS011;2203;53.686;9.994;2022-08-21T13:26:44;2.60;;;1.70;;
4377;SDS011;2203;53.686;9.994;2022-08-21T13:29:11;2.70;;;1.27;;
4377;SDS011;2203;53.686;9.994;2022-08-21T13:31:40;2.07;;;1.17;;
4377;SDS011;2203;53.686;9.994;2022-08-21T13:34:07;2.37;;;1.00;;
4377;SDS011;2203;53.686;9.994;2022-08-21T13:36:36;5.67;;;1.60;;
4377;SDS011;2203;53.686;9.994;2022-08-21T13:39:03;3.17;;;1.40;;
4377;SDS011;2203;53.686;9.994;2022-08-21T13:41:31;8.43;;;1.40;;
4377;SDS011;2203;53.686;9.994;2022-08-21T13:44:03;6.33;;;1.50;;
4377;SDS011;2203;53.686;9.994;2022-08-21T13:46:32;5.50;;;1.40;;
4377;SDS011;2203;53.686;9.994;2022-08-21T13:49:00;6.20;;;1.90;;
4377;SDS011;2203;53.686;9.994;2022-08-21T13:51:27;4.47;;;1.47;;
4377;SDS011;2203;53.686;9.994;2022-08-21T13:53:53;5.73;;;1.43;;
4377;SDS011;2203;53.686;9.994;2022-08-21T13:56:31;2.40;;;1.27;;
4377;SDS011;2203;53.686;9.994;2022-08-21T13:58:58;3.30;;;1.57;;
4377;SDS011;2203;53.686;9.994;2022-08-21T14:01:33;1.93;;;1.33;;
4377;SDS011;2203;53.686;9.994;2022-08-21T14:04:14;4.27;;;1.43;;
4377;SDS011;2203;53.686;9.994;2022-08-21T14:06:45;3.00;;;1.30;;
4377;SDS011;2203;53.686;9.994;2022-08-21T14:09:12;3.33;;;1.63;;
4377;SDS011;2203;53.686;9.994;2022-08-21T14:11:44;2.83;;;1.20;;
4377;SDS011;2203;53.686;9.994;2022-08-21T14:14:24;3.20;;;1.73;;
4377;SDS011;2203;53.686;9.994;2022-08-21T14:17:03;3.17;;;1.20;;
4377;SDS011;2203;53.686;9.994;2022-08-21T14:19:43;6.20;;;1.60;;
4377;SDS011;2203;53.686;9.994;2022-08-21T14:25:02;4.63;;;1.47;;
4377;SDS011;2203;53.686;9.994;2022-08-21T14:27:32;5.37;;;1.57;;
4377;SDS011;2203;53.686;9.994;2022-08-21T14:30:00;4.80;;;1.33;;
4377;SDS011;2203;53.686;9.994;2022-08-21T14:32:39;4.10;;;1.60;;
4377;SDS011;2203;53.686;9.994;2022-08-21T14:35:05;3.03;;;1.40;;
4377;SDS011;2203;53.686;9.994;2022-08-21T14:37:31;3.07;;;1.30;;
4377;SDS011;2203;53.686;9.994;2022-08-21T14:39:57;6.40;;;1.50;;
4377;SDS011;2203;53.686;9.994;2022-08-21T14:42:23;3.27;;;1.37;;
4377;SDS011;2203;53.686;9.994;2022-08-21T14:44:48;1.90;;;1.30;;
4377;SDS011;2203;53.686;9.994;2022-08-21T14:47:14;9.30;;;1.57;;
4377;SDS011;2203;53.686;9.994;2022-08-21T14:49:40;3.13;;;1.37;;
4377;SDS011;2203;53.686;9.994;2022-08-21T14:52:05;3.70;;;1.43;;
4377;SDS011;2203;53.686;9.994;2022-08-21T14:54:31;2.77;;;1.30;;
4377;SDS011;2203;53.686;9.994;2022-08-21T14:56:57;8.20;;;1.40;;
4377;SDS011;2203;53.686;9.994;2022-08-21T14:59:24;3.80;;;1.30;;
4377;SDS011;2203;53.686;9.994;2022-08-21T15:01:50;3.97;;;1.47;;
4377;SDS011;2203;53.686;9.994;2022-08-21T15:04:16;4.43;;;1.33;;
4377;SDS011;2203;53.686;9.994;2022-08-21T15:06:41;8.17;;;1.63;;
4377;SDS011;2203;53.686;9.994;2022-08-21T15:09:06;2.77;;;1.53;;
4377;SDS011;2203;53.686;9.994;2022-08-21T15:11:32;5.80;;;1.37;;
4377;SDS011;2203;53.686;9.994;2022-08-21T15:13:59;5.83;;;1.57;;
4377;SDS011;2203;53.686;9.994;2022-08-21T15:16:28;17.33;;;2.37;;
4377;SDS011;2203;53.686;9.994;2022-08-21T15:18:55;7.63;;;1.30;;
4377;SDS011;2203;53.686;9.994;2022-08-21T15:21:20;7.60;;;2.03;;
4377;SDS011;2203;53.686;9.994;2022-08-21T15:23:46;8.97;;;1.93;;
4377;SDS011;2203;53.686;9.994;2022-08-21T15:26:11;6.30;;;2.13;;
4377;SDS011;2203;53.686;9.994;2022-08-21T15:28:37;4.70;;;1.60;;
4377;SDS011;2203;53.686;9.994;2022-08-21T15:31:03;7.93;;;1.90;;
4377;SDS011;2203;53.686;9.994;2022-08-21T15:33:29;5.70;;;1.70;;
4377;SDS011;2203;53.686;9.994;2022-08-21T15:35:55;7.37;;;1.90;;
4377;SDS011;2203;53.686;9.994;2022-08-21T15:38:21;7.40;;;1.70;;
4377;SDS011;2203;53.686;9.994;2022-08-21T15:40:46;4.03;;;1.20;;
4377;SDS011;2203;53.686;9.994;2022-08-21T15:43:21;8.23;;;1.77;;
4377;SDS011;2203;53.686;9.994;2022-08-21T15:45:58;8.00;;;1.50;;
4377;SDS011;2203;53.686;9.994;2022-08-21T15:48:24;2.90;;;1.90;;
4377;SDS011;2203;53.686;9.994;2022-08-21T15:50:49;5.97;;;1.70;;
4377;SDS011;2203;53.686;9.994;2022-08-21T15:53:15;5.03;;;2.23;;
4377;SDS011;2203;53.686;9.994;2022-08-21T15:55:40;3.20;;;1.40;;
4377;SDS011;2203;53.686;9.994;2022-08-21T15:58:06;6.70;;;1.60;;
4377;SDS011;2203;53.686;9.994;2022-08-21T16:00:32;5.90;;;1.60;;
4377;SDS011;2203;53.686;9.994;2022-08-21T16:02:59;4.20;;;1.43;;
4377;SDS011;2203;53.686;9.994;2022-08-21T16:05:25;5.00;;;1.40;;
4377;SDS011;2203;53.686;9.994;2022-08-21T16:07:51;6.53;;;1.50;;
4377;SDS011;2203;53.686;9.994;2022-08-21T16:10:18;3.97;;;1.87;;
4377;SDS011;2203;53.686;9.994;2022-08-21T16:12:49;4.53;;;1.83;;
4377;SDS011;2203;53.686;9.994;2022-08-21T16:15:16;10.60;;;1.90;;
4377;SDS011;2203;53.686;9.994;2022-08-21T16:17:43;6.07;;;1.90;;
4377;SDS011;2203;53.686;9.994;2022-08-21T16:20:14;5.37;;;1.20;;
4377;SDS011;2203;53.686;9.994;2022-08-21T16:22:41;6.07;;;1.43;;
4377;SDS011;2203;53.686;9.994;2022-08-21T16:25:06;8.93;;;2.27;;
4377;SDS011;2203;53.686;9.994;2022-08-21T16:27:33;4.90;;;2.57;;
4377;SDS011;2203;53.686;9.994;2022-08-21T16:29:59;15.73;;;3.87;;
4377;SDS011;2203;53.686;9.994;2022-08-21T16:32:25;30.83;;;3.70;;
4377;SDS011;2203;53.686;9.994;2022-08-21T16:34:50;16.03;;;3.27;;
4377;SDS011;2203;53.686;9.994;2022-08-21T16:37:16;46.63;;;8.07;;